createdAt,value
2022-09-20T00:01:22.766Z,7.25
2022-09-20T00:06:26.639Z,6.90
2022-09-20T00:08:53.811Z,8.15
2022-09-20T00:11:22.818Z,7.68
2022-09-20T00:13:50.991Z,7.72
2022-09-20T00:16:20.212Z,8.18
2022-09-20T00:18:51.171Z,7.20
2022-09-20T00:21:19.809Z,7.90
2022-09-20T00:23:46.872Z,11.70
2022-09-20T00:26:14.017Z,8.30
2022-09-20T00:28:41.616Z,7.63
2022-09-20T00:31:08.767Z,8.93
2022-09-20T00:33:53.909Z,8.63
2022-09-20T00:36:20.789Z,9.65
2022-09-20T00:38:48.002Z,7.90
2022-09-20T00:41:15.039Z,8.38
2022-09-20T00:43:43.685Z,8.95
2022-09-20T00:46:25.950Z,7.45
2022-09-20T00:48:55.219Z,7.80
2022-09-20T00:51:31.889Z,7.38
2022-09-20T00:54:00.043Z,8.48
2022-09-20T00:56:29.780Z,9.23
2022-09-20T00:59:16.222Z,8.85
2022-09-20T01:01:44.504Z,9.80
2022-09-20T01:04:11.944Z,8.52
2022-09-20T01:06:38.984Z,8.55
2022-09-20T01:09:07.326Z,8.98
2022-09-20T01:11:34.808Z,7.82
2022-09-20T01:14:01.852Z,7.97
2022-09-20T01:16:29.128Z,8.93
2022-09-20T01:18:57.458Z,8.25
2022-09-20T01:21:24.393Z,8.65
2022-09-20T01:24:33.685Z,8.60
2022-09-20T01:27:31.674Z,7.88
2022-09-20T01:30:04.071Z,8.73
2022-09-20T01:32:55.491Z,10.23
2022-09-20T01:35:22.774Z,8.15
2022-09-20T01:38:08.081Z,9.57
2022-09-20T01:41:09.723Z,8.90
2022-09-20T01:44:04.470Z,9.00
2022-09-20T01:46:33.202Z,8.55
2022-09-20T01:49:03.227Z,8.80
2022-09-20T01:51:41.969Z,8.02
2022-09-20T01:54:17.778Z,7.25
2022-09-20T01:57:17.775Z,8.35
2022-09-20T01:59:44.827Z,8.32
2022-09-20T02:02:43.973Z,8.50
2022-09-20T02:05:51.386Z,8.60
2022-09-20T02:08:44.117Z,9.02
2022-09-20T02:11:23.673Z,7.85
2022-09-20T02:14:06.377Z,7.95
2022-09-20T02:17:00.943Z,7.60
2022-09-20T02:19:37.909Z,8.32
2022-09-20T02:22:31.126Z,9.45
2022-09-20T02:25:03.464Z,9.55
2022-09-20T02:27:53.886Z,8.82
2022-09-20T02:30:23.602Z,10.45
2022-09-20T02:33:41.711Z,9.32
2022-09-20T02:36:14.637Z,9.40
2022-09-20T02:39:00.061Z,8.82
2022-09-20T02:41:52.749Z,10.55
2022-09-20T02:44:54.919Z,10.00
2022-09-20T02:47:37.564Z,8.73
2022-09-20T02:50:38.539Z,9.23
2022-09-20T02:53:08.708Z,9.02
2022-09-20T02:55:43.588Z,10.38
2022-09-20T02:58:19.348Z,9.35
2022-09-20T03:01:17.638Z,8.40
2022-09-20T03:04:03.039Z,9.07
2022-09-20T03:06:59.970Z,9.68
2022-09-20T03:09:43.140Z,10.20
2022-09-20T03:12:47.251Z,8.90
2022-09-20T03:15:19.800Z,8.50
2022-09-20T03:18:11.704Z,10.43
2022-09-20T03:20:57.484Z,10.50
2022-09-20T03:24:05.949Z,9.32
2022-09-20T03:27:10.277Z,10.15
2022-09-20T03:29:56.240Z,8.93
2022-09-20T03:32:33.885Z,9.63
2022-09-20T03:35:39.185Z,10.80
2022-09-20T03:38:08.967Z,9.32
2022-09-20T03:40:56.676Z,9.38
2022-09-20T03:43:30.522Z,9.90
2022-09-20T03:46:16.227Z,10.77
2022-09-20T03:49:04.677Z,10.10
2022-09-20T03:51:56.237Z,9.23
2022-09-20T03:55:02.750Z,9.30
2022-09-20T03:57:54.511Z,8.98
2022-09-20T04:00:33.988Z,8.73
2022-09-20T04:03:03.278Z,9.90
2022-09-20T04:05:37.006Z,9.75
2022-09-20T04:08:39.949Z,8.55
2022-09-20T04:11:31.473Z,9.25
2022-09-20T04:14:11.535Z,8.93
2022-09-20T04:17:03.513Z,8.73
2022-09-20T04:19:35.362Z,9.45
2022-09-20T04:22:03.192Z,9.27
2022-09-20T04:24:30.103Z,10.50
2022-09-20T04:27:24.526Z,9.13
2022-09-20T04:30:05.512Z,9.82
2022-09-20T04:32:52.470Z,10.37
2022-09-20T04:35:50.108Z,9.63
2022-09-20T04:38:18.708Z,10.77
2022-09-20T04:41:00.673Z,10.18
2022-09-20T04:43:58.056Z,10.52
2022-09-20T04:47:02.237Z,10.70
2022-09-20T04:49:50.405Z,11.52
2022-09-20T04:52:53.676Z,9.70
2022-09-20T04:55:35.572Z,10.40
2022-09-20T04:58:08.400Z,10.73
2022-09-20T05:01:17.128Z,10.88
2022-09-20T05:04:05.310Z,11.32
2022-09-20T05:07:01.661Z,9.80
2022-09-20T05:09:53.027Z,11.35
2022-09-20T05:12:36.373Z,11.10
2022-09-20T05:15:23.926Z,11.63
2022-09-20T05:18:07.262Z,10.30
2022-09-20T05:20:40.433Z,11.60
2022-09-20T05:23:16.746Z,10.32
2022-09-20T05:26:17.988Z,10.25
2022-09-20T05:29:01.860Z,10.07
2022-09-20T05:31:45.074Z,9.60
2022-09-20T05:34:33.196Z,9.48
2022-09-20T05:37:06.265Z,10.00
2022-09-20T05:40:13.283Z,9.45
2022-09-20T05:42:44.286Z,10.68
2022-09-20T05:45:33.442Z,11.13
2022-09-20T05:48:10.448Z,11.50
2022-09-20T05:51:13.656Z,10.63
2022-09-20T05:53:46.534Z,11.88
2022-09-20T05:56:33.350Z,11.93
2022-09-20T05:59:22.690Z,12.13
2022-09-20T06:02:16.714Z,11.63
2022-09-20T06:05:16.933Z,11.32
2022-09-20T06:08:00.777Z,10.55
2022-09-20T06:10:55.657Z,11.27
2022-09-20T06:13:41.660Z,10.23
2022-09-20T06:16:12.337Z,12.82
2022-09-20T06:18:53.737Z,10.50
2022-09-20T06:21:46.780Z,11.45
2022-09-20T06:25:04.337Z,9.80
2022-09-20T06:27:41.155Z,10.50
2022-09-20T06:30:15.165Z,9.88
2022-09-20T06:33:07.236Z,8.23
2022-09-20T06:38:43.781Z,10.25
2022-09-20T06:41:29.863Z,13.40
2022-09-20T06:43:59.164Z,10.55
2022-09-20T06:46:31.565Z,12.25
2022-09-20T06:48:58.702Z,11.88
2022-09-20T06:51:26.964Z,11.00
2022-09-20T06:53:55.021Z,12.13
2022-09-20T06:56:29.814Z,11.95
2022-09-20T06:58:56.810Z,11.75
2022-09-20T07:01:30.236Z,10.93
2022-09-20T07:03:58.948Z,10.80
2022-09-20T07:06:26.827Z,10.80
2022-09-20T07:08:53.867Z,10.43
2022-09-20T07:11:21.342Z,11.20
2022-09-20T07:13:50.830Z,11.63
2022-09-20T07:16:17.767Z,12.68
2022-09-20T07:18:44.909Z,10.40
2022-09-20T07:21:12.665Z,10.85
2022-09-20T07:23:39.630Z,9.45
2022-09-20T07:26:07.180Z,8.90
2022-09-20T07:28:34.795Z,10.07
2022-09-20T07:31:01.894Z,9.90
2022-09-20T07:33:28.958Z,10.55
2022-09-20T07:35:56.007Z,10.32
2022-09-20T07:38:23.136Z,10.45
2022-09-20T07:40:57.752Z,10.88
2022-09-20T07:43:25.363Z,9.93
2022-09-20T07:45:56.109Z,9.00
2022-09-20T07:48:25.546Z,11.30
2022-09-20T07:51:04.748Z,13.02
2022-09-20T07:53:35.199Z,11.05
2022-09-20T07:56:04.206Z,10.27
2022-09-20T07:58:31.979Z,10.98
2022-09-20T08:01:00.179Z,10.95
2022-09-20T08:03:27.327Z,10.60
2022-09-20T08:06:00.145Z,12.15
2022-09-20T08:08:27.148Z,10.95
2022-09-20T08:10:56.061Z,9.60
2022-09-20T08:16:11.020Z,10.23
2022-09-20T08:18:38.045Z,9.95
2022-09-20T08:21:06.692Z,9.88
2022-09-20T08:23:41.291Z,9.45
2022-09-20T08:26:09.889Z,9.60
2022-09-20T08:28:36.888Z,8.10
2022-09-20T08:31:09.060Z,9.73
2022-09-20T08:33:39.293Z,9.52
2022-09-20T08:36:07.004Z,7.68
2022-09-20T08:41:28.520Z,9.25
2022-09-20T08:44:00.554Z,7.85
2022-09-20T08:46:35.944Z,10.43
2022-09-20T08:49:11.025Z,9.00
2022-09-20T08:51:39.115Z,9.63
2022-09-20T08:54:14.463Z,8.93
2022-09-20T08:56:41.340Z,7.82
2022-09-20T08:59:11.673Z,8.20
2022-09-20T09:01:38.764Z,7.77
2022-09-20T09:04:13.274Z,7.70
2022-09-20T09:06:40.443Z,8.25
2022-09-20T09:09:07.502Z,7.93
2022-09-20T09:11:34.821Z,7.22
2022-09-20T09:14:25.426Z,7.82
2022-09-20T09:16:52.450Z,7.35
2022-09-20T09:19:33.358Z,7.15
2022-09-20T09:24:28.598Z,7.25
2022-09-20T09:27:19.328Z,7.97
2022-09-20T09:29:51.028Z,6.60
2022-09-20T09:32:28.568Z,6.10
2022-09-20T09:34:56.155Z,6.75
2022-09-20T09:37:28.681Z,8.02
2022-09-20T09:40:19.005Z,6.18
2022-09-20T09:42:57.184Z,4.90
2022-09-20T09:45:39.044Z,6.90
2022-09-20T09:48:27.623Z,4.15
2022-09-20T09:51:11.589Z,4.60
2022-09-20T09:53:39.137Z,3.50
2022-09-20T09:56:30.102Z,3.65
2022-09-20T09:59:10.687Z,4.35
2022-09-20T10:01:40.436Z,4.27
2022-09-20T10:04:21.621Z,4.53
2022-09-20T10:07:00.847Z,5.70
2022-09-20T10:09:53.010Z,6.25
2022-09-20T10:12:30.310Z,5.53
2022-09-20T10:15:14.410Z,5.45
2022-09-20T10:18:22.290Z,5.50
2022-09-20T10:21:25.135Z,4.53
2022-09-20T10:24:04.059Z,4.95
2022-09-20T10:26:40.377Z,4.45
2022-09-20T10:29:08.447Z,5.68
2022-09-20T10:32:18.203Z,5.13
2022-09-20T10:35:03.778Z,4.10
2022-09-20T10:37:33.648Z,5.25
2022-09-20T10:40:16.302Z,4.82
2022-09-20T10:43:08.609Z,4.75
2022-09-20T10:48:42.759Z,4.50
2022-09-20T10:51:28.404Z,4.70
2022-09-20T10:54:08.871Z,6.30
2022-09-20T10:56:43.727Z,5.72
2022-09-20T10:59:20.685Z,3.85
2022-09-20T11:02:30.223Z,5.35
2022-09-20T11:05:16.682Z,4.80
2022-09-20T11:08:03.402Z,4.18
2022-09-20T11:10:36.214Z,5.00
2022-09-20T11:13:07.849Z,4.72
2022-09-20T11:16:10.125Z,4.25
2022-09-20T11:18:54.126Z,4.30
2022-09-20T11:21:31.731Z,5.00
2022-09-20T11:24:18.228Z,5.13
2022-09-20T11:26:52.302Z,4.18
2022-09-20T11:29:35.891Z,5.30
2022-09-20T11:32:10.877Z,4.57
2022-09-20T11:35:08.773Z,4.95
2022-09-20T11:37:38.612Z,4.22
2022-09-20T11:40:29.513Z,4.85
2022-09-20T11:42:57.569Z,4.15
2022-09-20T11:45:28.305Z,4.88
2022-09-20T11:48:11.770Z,5.38
2022-09-20T11:50:45.328Z,4.57
2022-09-20T11:53:37.242Z,4.47
2022-09-20T11:56:08.023Z,4.28
2022-09-20T11:58:52.018Z,3.83
2022-09-20T12:01:48.329Z,4.85
2022-09-20T12:04:32.503Z,3.97
2022-09-20T12:07:17.848Z,4.85
2022-09-20T12:10:01.941Z,5.20
2022-09-20T12:12:39.318Z,8.48
2022-09-20T12:15:28.163Z,4.15
2022-09-20T12:17:58.812Z,4.28
2022-09-20T12:20:35.103Z,3.78
2022-09-20T12:23:45.348Z,4.57
2022-09-20T12:26:21.782Z,4.63
2022-09-20T12:28:52.615Z,4.60
2022-09-20T12:31:22.603Z,4.80
2022-09-20T12:34:16.036Z,3.88
2022-09-20T12:37:10.323Z,4.40
2022-09-20T12:39:38.322Z,4.57
2022-09-20T12:42:12.039Z,3.75
2022-09-20T12:44:41.204Z,4.70
2022-09-20T12:47:11.124Z,4.35
2022-09-20T12:49:56.824Z,5.05
2022-09-20T12:52:42.272Z,4.72
2022-09-20T12:55:11.357Z,4.88
2022-09-20T12:57:38.583Z,4.45
2022-09-20T13:00:06.978Z,5.00
2022-09-20T13:02:56.738Z,4.53
2022-09-20T13:05:32.241Z,4.97
2022-09-20T13:08:22.719Z,5.68
2022-09-20T13:11:19.253Z,4.82
2022-09-20T13:13:56.269Z,4.95
2022-09-20T13:16:39.531Z,5.63
2022-09-20T13:19:11.206Z,4.60
2022-09-20T13:21:40.453Z,5.57
2022-09-20T13:24:08.023Z,5.80
2022-09-20T13:26:40.124Z,5.28
2022-09-20T13:29:10.354Z,5.55
2022-09-20T13:31:37.614Z,5.38
2022-09-20T13:34:24.365Z,5.32
2022-09-20T13:36:56.523Z,5.05
2022-09-20T13:39:29.692Z,6.03
2022-09-20T13:42:12.333Z,7.65
2022-09-20T13:44:39.326Z,7.10
2022-09-20T13:47:29.444Z,5.72
2022-09-20T13:50:10.358Z,4.68
2022-09-20T13:52:47.299Z,7.03
2022-09-20T13:55:33.291Z,5.18
2022-09-20T13:58:06.225Z,5.38
2022-09-20T14:00:33.740Z,6.00
2022-09-20T14:03:00.787Z,5.32
2022-09-20T14:05:29.434Z,5.18
2022-09-20T14:07:56.816Z,5.22
2022-09-20T14:10:31.158Z,5.75
2022-09-20T14:12:59.767Z,5.20
2022-09-20T14:15:27.488Z,5.60
2022-09-20T14:17:55.487Z,4.78
2022-09-20T14:20:24.057Z,5.60
2022-09-20T14:22:51.009Z,5.47
2022-09-20T14:25:27.791Z,5.20
2022-09-20T14:28:16.516Z,5.25
2022-09-20T14:30:43.488Z,6.43
2022-09-20T14:33:15.374Z,4.95
2022-09-20T14:35:51.691Z,5.20
2022-09-20T14:38:22.441Z,6.28
2022-09-20T14:40:49.861Z,4.85
2022-09-20T14:43:37.122Z,5.00
2022-09-20T14:46:05.639Z,4.70
2022-09-20T14:48:42.918Z,6.38
2022-09-20T14:51:16.456Z,4.60
2022-09-20T14:53:44.280Z,6.00
2022-09-20T14:56:12.575Z,4.78
2022-09-20T14:59:06.655Z,6.80
2022-09-20T15:01:34.739Z,4.45
2022-09-20T15:04:09.730Z,5.00
2022-09-20T15:06:40.230Z,4.75
2022-09-20T15:09:07.345Z,5.37
2022-09-20T15:11:34.337Z,6.05
2022-09-20T15:14:01.365Z,5.57
2022-09-20T15:16:28.275Z,5.15
2022-09-20T15:18:55.280Z,4.78
2022-09-20T15:21:22.351Z,4.90
2022-09-20T15:23:49.243Z,5.22
2022-09-20T15:26:16.305Z,5.53
2022-09-20T15:28:43.198Z,5.00
2022-09-20T15:31:10.336Z,5.18
2022-09-20T15:33:37.333Z,4.85
2022-09-20T15:36:04.509Z,5.07
2022-09-20T15:38:31.450Z,4.60
2022-09-20T15:41:00.708Z,4.95
2022-09-20T15:43:28.198Z,4.93
2022-09-20T15:45:56.754Z,5.53
2022-09-20T15:48:25.581Z,4.80
2022-09-20T15:51:06.882Z,4.93
2022-09-20T15:53:35.523Z,7.43
2022-09-20T15:56:04.448Z,4.68
2022-09-20T15:58:36.738Z,5.22
2022-09-20T16:01:08.267Z,6.55
2022-09-20T16:06:04.834Z,4.75
2022-09-20T16:08:36.369Z,5.90
2022-09-20T16:11:03.453Z,5.57
2022-09-20T16:13:30.449Z,5.13
2022-09-20T16:15:58.202Z,5.50
2022-09-20T16:18:44.245Z,6.18
2022-09-20T16:21:12.592Z,6.07
2022-09-20T16:23:40.515Z,6.13
2022-09-20T16:26:09.732Z,5.93
2022-09-20T16:28:37.058Z,6.05
2022-09-20T16:31:04.081Z,5.07
2022-09-20T16:33:33.123Z,6.93
2022-09-20T16:36:00.668Z,5.20
2022-09-20T16:38:28.528Z,5.95
2022-09-20T16:40:55.741Z,8.93
2022-09-20T16:43:26.258Z,6.65
2022-09-20T16:46:00.663Z,5.47
2022-09-20T16:48:31.621Z,5.38
2022-09-20T16:51:04.774Z,6.30
2022-09-20T16:53:32.799Z,6.00
2022-09-20T16:56:01.147Z,6.78
2022-09-20T16:58:29.518Z,5.25
2022-09-20T17:01:06.303Z,6.45
2022-09-20T17:03:34.312Z,5.53
2022-09-20T17:06:02.715Z,5.38
2022-09-20T17:08:29.838Z,6.25
2022-09-20T17:11:01.272Z,5.65
2022-09-20T17:13:33.043Z,5.30
2022-09-20T17:16:04.166Z,6.13
2022-09-20T17:18:31.182Z,5.65
2022-09-20T17:21:04.246Z,6.57
2022-09-20T17:23:33.944Z,6.53
2022-09-20T17:26:06.593Z,5.43
2022-09-20T17:28:37.981Z,6.35
2022-09-20T17:31:06.147Z,6.18
2022-09-20T17:33:33.906Z,5.60
2022-09-20T17:36:01.648Z,5.78
2022-09-20T17:38:30.999Z,4.80
2022-09-20T17:41:01.622Z,6.22
2022-09-20T17:43:29.998Z,5.80
2022-09-20T17:46:05.514Z,5.65
2022-09-20T17:48:34.340Z,5.40
2022-09-20T17:51:02.530Z,5.32
2022-09-20T17:53:33.659Z,5.18
2022-09-20T17:56:00.849Z,5.30
2022-09-20T17:58:27.943Z,4.95
2022-09-20T18:00:56.707Z,5.70
2022-09-20T18:03:24.304Z,4.68
2022-09-20T18:05:51.727Z,5.70
2022-09-20T18:08:19.152Z,5.95
2022-09-20T18:10:59.063Z,5.38
2022-09-20T18:13:27.795Z,5.40
2022-09-20T18:15:54.867Z,6.65
2022-09-20T18:18:21.995Z,6.35
2022-09-20T18:20:49.657Z,6.20
2022-09-20T18:23:16.780Z,5.60
2022-09-20T18:26:02.048Z,5.70
2022-09-20T18:28:29.065Z,6.30
2022-09-20T18:31:02.925Z,7.22
2022-09-20T18:33:30.988Z,5.93
2022-09-20T18:36:05.014Z,6.15
2022-09-20T18:38:33.200Z,7.97
2022-09-20T18:41:01.086Z,5.50
2022-09-20T18:43:30.085Z,5.40
2022-09-20T18:45:57.675Z,6.47
2022-09-20T18:48:25.776Z,6.15
2022-09-20T18:51:00.565Z,7.32
2022-09-20T18:53:35.515Z,8.38
2022-09-20T18:56:29.717Z,8.18
2022-09-20T18:59:03.930Z,7.70
2022-09-20T19:02:02.400Z,7.22
2022-09-20T19:05:08.391Z,6.50
2022-09-20T19:08:01.629Z,7.65
2022-09-20T19:10:51.691Z,7.68
2022-09-20T19:13:42.548Z,6.97
2022-09-20T19:16:25.319Z,8.00
2022-09-20T19:19:14.715Z,7.68
2022-09-20T19:21:56.932Z,8.07
2022-09-20T19:24:38.991Z,8.35
2022-09-20T19:27:06.467Z,8.20
2022-09-20T19:29:33.970Z,7.55
2022-09-20T19:32:01.365Z,8.93
2022-09-20T19:34:29.985Z,8.80
2022-09-20T19:37:18.886Z,8.23
2022-09-20T19:40:01.150Z,7.65
2022-09-20T19:42:36.332Z,10.13
2022-09-20T19:45:10.392Z,7.40
2022-09-20T19:48:05.331Z,7.93
2022-09-20T19:50:45.311Z,8.90
2022-09-20T19:53:16.988Z,9.45
2022-09-20T19:55:48.529Z,7.85
2022-09-20T19:58:15.758Z,7.65
2022-09-20T20:00:46.473Z,9.93
2022-09-20T20:03:14.055Z,10.45
2022-09-20T20:06:07.857Z,8.75
2022-09-20T20:08:43.138Z,7.93
2022-09-20T20:11:28.479Z,9.90
2022-09-20T20:14:09.201Z,9.77
2022-09-20T20:16:45.563Z,9.05
2022-09-20T20:19:30.181Z,9.05
2022-09-20T20:21:59.031Z,8.75
2022-09-20T20:24:34.283Z,8.38
2022-09-20T20:27:01.326Z,8.40
2022-09-20T20:29:28.337Z,11.52
2022-09-20T20:31:55.199Z,8.63
2022-09-20T20:34:22.887Z,10.15
2022-09-20T20:36:49.910Z,9.48
2022-09-20T20:39:17.537Z,8.82
2022-09-20T20:41:44.674Z,8.43
2022-09-20T20:44:12.478Z,8.43
2022-09-20T20:46:39.550Z,10.77
2022-09-20T20:49:06.479Z,10.90
2022-09-20T20:51:33.393Z,9.73
2022-09-20T20:54:00.390Z,10.10
2022-09-20T20:56:28.876Z,10.50
2022-09-20T20:59:00.708Z,9.02
2022-09-20T21:01:29.051Z,11.27
2022-09-20T21:03:56.325Z,10.25
2022-09-20T21:06:25.217Z,8.68
2022-09-20T21:08:52.310Z,9.18
2022-09-20T21:11:29.827Z,9.27
2022-09-20T21:13:57.945Z,10.80
2022-09-20T21:16:26.684Z,10.05
2022-09-20T21:18:53.840Z,9.15
2022-09-20T21:21:26.029Z,9.45
2022-09-20T21:23:54.882Z,10.20
2022-09-20T21:26:22.342Z,9.13
2022-09-20T21:28:54.014Z,9.93
2022-09-20T21:31:22.507Z,11.10
2022-09-20T21:33:49.749Z,10.50
2022-09-20T21:36:17.812Z,10.45
2022-09-20T21:38:45.301Z,8.90
2022-09-20T21:41:14.197Z,11.63
2022-09-20T21:43:43.133Z,10.35
2022-09-20T21:46:14.204Z,9.75
2022-09-20T21:48:41.465Z,13.68
2022-09-20T21:51:10.789Z,10.38
2022-09-20T21:53:38.554Z,11.13
2022-09-20T21:56:09.922Z,12.50
2022-09-20T21:58:40.189Z,10.00
2022-09-20T22:01:14.905Z,12.23
2022-09-20T22:03:49.377Z,10.63
2022-09-20T22:06:36.352Z,10.55
2022-09-20T22:09:09.783Z,11.40
2022-09-20T22:11:41.080Z,10.75
2022-09-20T22:14:08.774Z,11.30
2022-09-20T22:16:37.994Z,12.23
2022-09-20T22:19:05.382Z,10.63
2022-09-20T22:21:37.018Z,10.38
2022-09-20T22:24:08.150Z,11.02
2022-09-20T22:26:37.102Z,10.68
2022-09-20T22:29:04.474Z,10.80
2022-09-20T22:31:32.617Z,9.05
2022-09-20T22:34:04.107Z,10.55
2022-09-20T22:36:32.803Z,11.35
2022-09-20T22:38:59.721Z,10.07
2022-09-20T22:41:27.891Z,10.75
2022-09-20T22:43:55.124Z,11.60
2022-09-20T22:46:23.708Z,12.23
2022-09-20T22:48:50.820Z,11.05
2022-09-20T22:51:19.485Z,12.93
2022-09-20T22:53:46.938Z,10.57
2022-09-20T22:56:25.003Z,9.98
2022-09-20T22:58:53.477Z,11.65
2022-09-20T23:01:22.353Z,9.48
2022-09-20T23:03:57.418Z,10.82
2022-09-20T23:06:28.121Z,10.00
2022-09-20T23:08:57.256Z,9.90
2022-09-20T23:11:24.501Z,9.57
2022-09-20T23:14:16.029Z,9.10
2022-09-20T23:16:43.158Z,10.45
2022-09-20T23:19:10.474Z,10.25
2022-09-20T23:21:38.330Z,9.52
2022-09-20T23:24:06.937Z,9.48
2022-09-20T23:26:34.868Z,8.98
2022-09-20T23:29:12.509Z,13.32
2022-09-20T23:31:40.485Z,10.88
2022-09-20T23:34:08.217Z,12.00
2022-09-20T23:36:36.981Z,10.55
2022-09-20T23:39:04.482Z,8.82
2022-09-20T23:41:31.453Z,10.15
2022-09-20T23:43:58.514Z,10.50
2022-09-20T23:46:26.076Z,9.68
2022-09-20T23:48:53.237Z,12.65
2022-09-20T23:51:22.532Z,9.40
2022-09-20T23:53:50.237Z,10.48
2022-09-20T23:56:17.519Z,9.70
2022-09-20T23:58:45.146Z,10.52
